createdAt,value
2023-03-26T00:00:07.102Z,80.13
2023-03-26T00:02:33.839Z,80.10
2023-03-26T00:05:00.471Z,79.86
2023-03-26T00:07:27.211Z,80.40
2023-03-26T00:09:53.814Z,80.11
2023-03-26T00:12:20.536Z,79.53
2023-03-26T00:14:47.234Z,79.35
2023-03-26T00:17:15.490Z,79.27
2023-03-26T00:19:42.040Z,79.34
2023-03-26T00:22:08.719Z,78.95
2023-03-26T00:24:35.331Z,78.86
2023-03-26T00:27:01.912Z,79.16
2023-03-26T00:29:28.736Z,78.95
2023-03-26T00:31:55.307Z,78.93
2023-03-26T00:34:23.295Z,79.09
2023-03-26T00:36:49.978Z,78.66
2023-03-26T00:39:16.621Z,78.74
2023-03-26T00:41:43.437Z,78.86
2023-03-26T00:44:10.833Z,78.70
2023-03-26T00:46:37.562Z,78.94
2023-03-26T00:49:04.837Z,78.71
2023-03-26T00:51:33.033Z,77.98
2023-03-26T00:53:59.870Z,78.64
2023-03-26T00:56:26.757Z,78.78
2023-03-26T00:58:53.502Z,79.23
2023-03-26T01:01:25.002Z,79.55
2023-03-26T01:04:05.295Z,80.36
2023-03-26T01:06:38.817Z,80.94
2023-03-26T01:09:14.350Z,81.62
2023-03-26T01:11:41.572Z,81.73
2023-03-26T01:14:12.260Z,81.48
2023-03-26T01:16:43.125Z,81.65
2023-03-26T01:19:17.817Z,81.66
2023-03-26T01:21:45.893Z,81.93
2023-03-26T01:24:14.091Z,82.33
2023-03-26T01:26:53.100Z,82.14
2023-03-26T01:29:25.889Z,81.96
2023-03-26T01:31:59.341Z,81.76
2023-03-26T01:34:29.965Z,82.12
2023-03-26T01:37:05.259Z,82.19
2023-03-26T01:39:41.275Z,81.98
2023-03-26T01:42:11.468Z,81.90
2023-03-26T01:44:44.062Z,82.10
2023-03-26T01:47:12.610Z,82.17
2023-03-26T01:49:39.337Z,82.89
2023-03-26T01:52:13.067Z,82.88
2023-03-26T01:54:41.450Z,83.05
2023-03-26T01:57:17.953Z,83.39
2023-03-26T02:00:01.860Z,83.39
2023-03-26T02:02:36.468Z,83.29
2023-03-26T02:05:12.704Z,83.51
2023-03-26T02:07:43.974Z,83.15
2023-03-26T02:10:15.254Z,83.37
2023-03-26T02:12:43.101Z,83.11
2023-03-26T02:15:11.108Z,83.34
2023-03-26T02:17:37.787Z,83.08
2023-03-26T02:20:05.280Z,82.94
2023-03-26T02:22:31.943Z,82.99
2023-03-26T02:24:58.535Z,82.91
2023-03-26T02:27:26.467Z,82.85
2023-03-26T02:29:53.135Z,82.72
2023-03-26T02:32:19.764Z,82.97
2023-03-26T02:34:46.464Z,82.88
2023-03-26T02:37:13.162Z,82.87
2023-03-26T02:39:39.839Z,83.16
2023-03-26T02:42:06.389Z,82.58
2023-03-26T02:44:34.342Z,82.84
2023-03-26T02:47:00.951Z,83.06
2023-03-26T02:49:27.541Z,83.20
2023-03-26T02:51:54.161Z,83.15
2023-03-26T02:54:21.025Z,82.99
2023-03-26T02:56:47.644Z,83.27
2023-03-26T02:59:14.337Z,83.14
2023-03-26T03:01:42.326Z,83.54
2023-03-26T03:04:09.012Z,83.35
2023-03-26T03:06:36.351Z,83.35
2023-03-26T03:09:03.051Z,83.75
2023-03-26T03:11:29.614Z,83.62
2023-03-26T03:13:56.428Z,83.48
2023-03-26T03:16:23.305Z,83.45
2023-03-26T03:18:51.428Z,83.81
2023-03-26T03:21:17.962Z,83.97
2023-03-26T03:23:44.577Z,83.98
2023-03-26T03:26:14.300Z,84.11
2023-03-26T03:28:41.189Z,83.90
2023-03-26T03:31:07.820Z,84.15
2023-03-26T03:33:34.482Z,83.40
2023-03-26T03:36:02.511Z,83.58
2023-03-26T03:38:29.162Z,83.31
2023-03-26T03:40:55.773Z,83.31
2023-03-26T03:43:22.388Z,82.86
2023-03-26T03:45:49.076Z,82.79
2023-03-26T03:48:15.682Z,82.76
2023-03-26T03:50:42.270Z,82.75
2023-03-26T03:53:10.265Z,82.84
2023-03-26T03:55:36.821Z,82.65
2023-03-26T03:58:03.830Z,82.94
2023-03-26T04:00:30.455Z,83.03
2023-03-26T04:02:57.078Z,83.43
2023-03-26T04:05:23.775Z,83.52
2023-03-26T04:07:50.528Z,83.15
2023-03-26T04:10:18.692Z,83.41
2023-03-26T04:12:45.290Z,83.58
2023-03-26T04:15:11.916Z,83.79
2023-03-26T04:17:38.482Z,83.56
2023-03-26T04:20:06.235Z,83.92
2023-03-26T04:22:32.827Z,83.55
2023-03-26T04:24:59.465Z,83.44
2023-03-26T04:27:31.302Z,83.38
2023-03-26T04:30:00.913Z,83.34
2023-03-26T04:32:30.429Z,83.42
2023-03-26T04:34:57.796Z,83.12
2023-03-26T04:37:26.999Z,82.71
2023-03-26T04:39:53.808Z,82.66
2023-03-26T04:42:20.515Z,82.88
2023-03-26T04:44:48.597Z,82.44
2023-03-26T04:47:15.217Z,82.57
2023-03-26T04:49:41.817Z,82.65
2023-03-26T04:52:10.600Z,82.64
2023-03-26T04:54:37.548Z,83.24
2023-03-26T04:57:08.941Z,83.63
2023-03-26T04:59:35.782Z,83.79
2023-03-26T05:02:05.746Z,83.64
2023-03-26T05:04:33.059Z,83.93
2023-03-26T05:06:59.937Z,83.62
2023-03-26T05:09:27.344Z,83.75
2023-03-26T05:11:54.423Z,83.77
2023-03-26T05:14:21.122Z,83.88
2023-03-26T05:16:49.645Z,83.51
2023-03-26T05:19:17.656Z,83.09
2023-03-26T05:21:44.424Z,83.08
2023-03-26T05:24:11.077Z,82.88
2023-03-26T05:26:37.825Z,82.82
2023-03-26T05:29:04.583Z,82.92
2023-03-26T05:31:31.288Z,82.84
2023-03-26T05:33:58.445Z,82.61
2023-03-26T05:36:26.643Z,82.98
2023-03-26T05:38:53.352Z,82.52
2023-03-26T05:41:20.028Z,82.71
2023-03-26T05:43:46.645Z,82.54
2023-03-26T05:46:14.354Z,82.25
2023-03-26T05:48:41.117Z,82.23
2023-03-26T05:51:08.242Z,82.29
2023-03-26T05:53:36.325Z,82.03
2023-03-26T05:56:03.025Z,82.11
2023-03-26T05:58:31.748Z,82.17
2023-03-26T06:00:58.780Z,81.82
2023-03-26T06:03:26.020Z,82.54
2023-03-26T06:05:52.773Z,82.25
2023-03-26T06:08:19.779Z,82.11
2023-03-26T06:10:48.069Z,82.68
2023-03-26T06:13:14.693Z,82.04
2023-03-26T06:15:41.607Z,82.26
2023-03-26T06:18:08.483Z,82.23
2023-03-26T06:20:35.176Z,81.67
2023-03-26T06:23:01.803Z,82.17
2023-03-26T06:25:28.423Z,82.22
2023-03-26T06:27:56.663Z,82.29
2023-03-26T06:30:23.208Z,82.24
2023-03-26T06:32:49.797Z,82.38
2023-03-26T06:35:16.570Z,82.15
2023-03-26T06:37:43.198Z,81.86
2023-03-26T06:40:10.751Z,81.86
2023-03-26T06:43:09.668Z,81.06
2023-03-26T06:45:25.502Z,80.76
2023-03-26T06:47:52.198Z,80.91
2023-03-26T06:50:19.687Z,80.63
2023-03-26T06:52:46.313Z,80.27
2023-03-26T06:55:14.281Z,80.12
2023-03-26T06:57:40.940Z,80.30
2023-03-26T07:00:09.069Z,80.30
2023-03-26T07:02:37.262Z,80.47
2023-03-26T07:05:04.296Z,80.88
2023-03-26T07:07:30.876Z,80.27
2023-03-26T07:09:57.842Z,79.79
2023-03-26T07:12:24.574Z,79.12
2023-03-26T07:14:51.194Z,78.59
2023-03-26T07:17:17.796Z,77.64
2023-03-26T07:19:45.750Z,77.90
2023-03-26T07:22:18.896Z,77.57
2023-03-26T07:24:46.203Z,77.85
2023-03-26T07:27:27.836Z,77.99
2023-03-26T07:29:59.599Z,77.77
2023-03-26T07:32:32.805Z,76.99
2023-03-26T07:35:08.718Z,77.25
2023-03-26T07:37:48.327Z,76.83
2023-03-26T07:40:28.731Z,76.94
2023-03-26T07:43:06.043Z,77.68
2023-03-26T07:45:39.402Z,77.18
2023-03-26T07:48:09.604Z,76.42
2023-03-26T07:50:38.297Z,76.49
2023-03-26T07:53:05.308Z,75.32
2023-03-26T07:55:32.213Z,75.27
2023-03-26T07:58:09.743Z,75.87
2023-03-26T08:00:43.789Z,75.28
2023-03-26T08:03:31.400Z,75.26
2023-03-26T08:06:11.353Z,76.01
2023-03-26T08:08:47.958Z,76.15
2023-03-26T08:11:26.847Z,75.05
2023-03-26T08:14:04.099Z,74.99
2023-03-26T08:16:38.690Z,75.73
2023-03-26T08:19:15.889Z,76.04
2023-03-26T08:21:50.761Z,75.33
2023-03-26T08:24:23.110Z,75.11
2023-03-26T08:26:58.327Z,75.55
2023-03-26T08:29:33.581Z,75.60
2023-03-26T08:32:01.502Z,75.50
2023-03-26T08:34:28.189Z,74.89
2023-03-26T08:36:56.149Z,75.48
2023-03-26T08:39:22.714Z,74.78
2023-03-26T08:42:19.613Z,74.42
2023-03-26T08:45:20.771Z,74.44
2023-03-26T08:48:20.877Z,73.83
2023-03-26T08:51:18.603Z,73.89
2023-03-26T08:54:25.845Z,73.18
2023-03-26T08:56:57.980Z,72.88
2023-03-26T09:00:09.663Z,71.81
2023-03-26T09:03:04.491Z,72.89
2023-03-26T09:06:04.939Z,71.89
2023-03-26T09:09:08.318Z,71.85
2023-03-26T09:12:12.991Z,72.88
2023-03-26T09:14:53.448Z,72.91
2023-03-26T09:17:50.511Z,73.03
2023-03-26T09:21:05.273Z,73.57
2023-03-26T09:24:13.716Z,74.04
2023-03-26T09:26:48.983Z,74.68
2023-03-26T09:29:46.076Z,75.88
2023-03-26T09:32:38.463Z,76.21
2023-03-26T09:35:19.647Z,76.29
2023-03-26T09:37:58.054Z,76.19
2023-03-26T09:40:35.549Z,75.83
2023-03-26T09:43:37.975Z,76.13
2023-03-26T09:46:21.720Z,76.85
2023-03-26T09:49:07.622Z,77.10
2023-03-26T09:52:01.878Z,76.16
2023-03-26T09:54:48.452Z,76.49
2023-03-26T09:57:26.144Z,76.79
2023-03-26T10:00:08.059Z,76.93
2023-03-26T10:02:56.242Z,76.08
2023-03-26T10:05:49.748Z,76.10
2023-03-26T10:08:41.989Z,76.72
2023-03-26T10:11:18.618Z,76.45
2023-03-26T10:13:58.095Z,77.87
2023-03-26T10:16:32.727Z,78.67
2023-03-26T10:19:20.076Z,79.28
2023-03-26T10:21:56.793Z,79.09
2023-03-26T10:24:38.304Z,79.74
2023-03-26T10:27:30.661Z,78.31
2023-03-26T10:30:39.909Z,79.62
2023-03-26T10:33:19.115Z,79.44
2023-03-26T10:35:59.776Z,79.09
2023-03-26T10:38:41.652Z,78.18
2023-03-26T10:41:16.730Z,77.87
2023-03-26T10:44:08.570Z,78.31
2023-03-26T10:46:59.915Z,76.78
2023-03-26T10:49:54.661Z,77.32
2023-03-26T10:52:25.528Z,76.47
2023-03-26T10:54:56.644Z,76.38
2023-03-26T10:57:34.013Z,75.42
2023-03-26T11:00:12.637Z,75.41
2023-03-26T11:02:44.623Z,74.19
2023-03-26T11:05:34.377Z,73.29
2023-03-26T11:08:10.557Z,74.22
2023-03-26T11:10:47.598Z,72.53
2023-03-26T11:13:21.398Z,71.72
2023-03-26T11:15:56.970Z,71.95
2023-03-26T11:18:32.318Z,71.24
2023-03-26T11:21:19.659Z,70.58
2023-03-26T11:24:05.442Z,69.77
2023-03-26T11:26:44.001Z,70.45
2023-03-26T11:29:31.417Z,70.05
2023-03-26T11:32:05.255Z,70.15
2023-03-26T11:34:37.691Z,68.83
2023-03-26T11:37:12.705Z,67.17
2023-03-26T11:39:48.444Z,67.27
2023-03-26T11:42:17.413Z,66.99
2023-03-26T11:44:48.233Z,67.23
2023-03-26T11:47:21.259Z,66.97
2023-03-26T11:49:51.106Z,67.02
2023-03-26T11:52:17.784Z,67.42
2023-03-26T11:54:45.992Z,67.44
2023-03-26T11:57:17.230Z,67.73
2023-03-26T11:59:57.319Z,66.83
2023-03-26T12:02:27.065Z,67.31
2023-03-26T12:05:10.920Z,66.18
2023-03-26T12:07:45.789Z,67.02
2023-03-26T12:10:24.977Z,65.95
2023-03-26T12:12:54.909Z,65.51
2023-03-26T12:15:22.124Z,64.29
2023-03-26T12:17:50.396Z,64.07
2023-03-26T12:20:33.465Z,64.65
2023-03-26T12:23:01.264Z,63.70
2023-03-26T12:25:31.117Z,62.78
2023-03-26T12:28:00.137Z,61.96
2023-03-26T12:30:28.204Z,61.85
2023-03-26T12:32:57.891Z,62.01
2023-03-26T12:35:26.784Z,62.00
2023-03-26T12:37:54.812Z,61.64
2023-03-26T12:40:31.061Z,60.91
2023-03-26T12:44:46.260Z,61.60
2023-03-26T12:47:54.921Z,60.80
2023-03-26T12:48:37.841Z,59.90
2023-03-26T12:51:12.980Z,59.29
2023-03-26T12:53:59.628Z,57.13
2023-03-26T12:56:31.815Z,57.68
2023-03-26T12:59:16.280Z,58.62
2023-03-26T13:01:53.897Z,58.65
2023-03-26T13:04:37.646Z,58.19
2023-03-26T13:07:07.800Z,58.26
2023-03-26T13:09:47.167Z,57.52
2023-03-26T13:12:29.269Z,57.42
2023-03-26T13:15:05.453Z,58.12
2023-03-26T13:17:39.413Z,57.96
2023-03-26T13:20:11.688Z,58.62
2023-03-26T13:22:47.604Z,58.62
2023-03-26T13:25:25.045Z,58.95
2023-03-26T13:28:02.942Z,58.57
2023-03-26T13:30:36.839Z,59.10
2023-03-26T13:33:23.250Z,59.00
2023-03-26T13:36:14.340Z,60.05
2023-03-26T13:38:59.076Z,58.92
2023-03-26T13:41:38.317Z,60.10
2023-03-26T13:44:20.594Z,59.33
2023-03-26T13:46:52.313Z,59.41
2023-03-26T13:49:24.424Z,59.75
2023-03-26T13:51:56.029Z,58.50
2023-03-26T13:54:28.546Z,59.18
2023-03-26T13:57:01.891Z,59.77
2023-03-26T13:59:31.888Z,60.25
2023-03-26T14:02:05.152Z,59.96
2023-03-26T14:04:37.057Z,57.92
2023-03-26T14:07:12.063Z,57.36
2023-03-26T14:09:45.751Z,57.99
2023-03-26T14:12:24.472Z,56.14
2023-03-26T14:14:55.156Z,56.20
2023-03-26T14:17:26.941Z,56.20
2023-03-26T14:20:23.460Z,57.01
2023-03-26T14:23:04.454Z,56.29
2023-03-26T14:25:45.819Z,55.47
2023-03-26T14:28:31.638Z,55.70
2023-03-26T14:31:14.993Z,56.54
2023-03-26T14:33:59.120Z,56.00
2023-03-26T14:36:43.920Z,56.29
2023-03-26T14:39:39.773Z,56.73
2023-03-26T14:42:17.943Z,56.53
2023-03-26T14:45:20.784Z,55.78
2023-03-26T14:48:07.889Z,56.09
2023-03-26T14:51:01.292Z,56.12
2023-03-26T14:53:33.033Z,56.51
2023-03-26T14:56:38.797Z,55.04
2023-03-26T14:59:50.226Z,54.73
2023-03-26T15:03:02.001Z,55.57
2023-03-26T15:05:51.245Z,54.68
2023-03-26T15:08:56.470Z,55.40
2023-03-26T15:11:29.719Z,55.36
2023-03-26T15:14:06.046Z,55.36
2023-03-26T15:17:13.460Z,55.58
2023-03-26T15:20:15.694Z,55.58
2023-03-26T15:23:23.469Z,56.27
2023-03-26T15:26:26.062Z,56.05
2023-03-26T15:29:19.723Z,55.17
2023-03-26T15:32:25.903Z,56.81
2023-03-26T15:35:19.685Z,56.61
2023-03-26T15:38:37.403Z,56.46
2023-03-26T15:41:16.063Z,55.67
2023-03-26T15:44:24.922Z,56.02
2023-03-26T15:46:59.270Z,56.30
2023-03-26T15:49:36.766Z,56.30
2023-03-26T15:52:15.958Z,56.76
2023-03-26T15:54:51.632Z,57.47
2023-03-26T15:57:28.916Z,56.87
2023-03-26T16:00:29.852Z,57.10
2023-03-26T16:03:19.490Z,56.50
2023-03-26T16:06:07.863Z,57.11
2023-03-26T16:08:43.290Z,56.92
2023-03-26T16:11:10.215Z,57.02
2023-03-26T16:13:38.469Z,57.08
2023-03-26T16:16:23.650Z,57.12
2023-03-26T16:19:18.078Z,57.03
2023-03-26T16:21:55.306Z,57.77
2023-03-26T16:24:30.527Z,57.82
2023-03-26T16:27:03.546Z,57.51
2023-03-26T16:29:31.015Z,57.95
2023-03-26T16:32:15.869Z,57.64
2023-03-26T16:34:50.322Z,57.21
2023-03-26T16:37:41.453Z,57.23
2023-03-26T16:40:33.162Z,57.56
2023-03-26T16:43:27.375Z,57.19
2023-03-26T16:46:03.914Z,57.26
2023-03-26T16:48:38.475Z,58.04
2023-03-26T16:51:13.147Z,58.23
2023-03-26T16:53:47.968Z,58.27
2023-03-26T16:56:28.927Z,58.25
2023-03-26T16:58:59.112Z,57.93
2023-03-26T17:01:39.770Z,58.48
2023-03-26T17:04:12.933Z,58.64
2023-03-26T17:06:55.955Z,58.17
2023-03-26T17:09:31.256Z,58.73
2023-03-26T17:12:06.602Z,58.93
2023-03-26T17:14:50.836Z,58.82
2023-03-26T17:17:38.163Z,58.70
2023-03-26T17:20:16.359Z,58.44
2023-03-26T17:22:47.630Z,58.44
2023-03-26T17:25:28.465Z,58.49
2023-03-26T17:28:15.493Z,58.49
2023-03-26T17:31:02.189Z,59.13
2023-03-26T17:33:32.418Z,58.89
2023-03-26T17:36:27.784Z,58.94
2023-03-26T17:39:03.251Z,58.63
2023-03-26T17:41:49.846Z,59.26
2023-03-26T17:44:45.968Z,59.32
2023-03-26T17:47:31.487Z,59.50
2023-03-26T17:50:07.563Z,59.55
2023-03-26T17:52:45.314Z,59.92
2023-03-26T17:55:17.275Z,60.18
2023-03-26T17:57:47.568Z,60.24
2023-03-26T18:00:20.548Z,60.28
2023-03-26T18:02:53.047Z,60.31
2023-03-26T18:05:21.819Z,60.69
2023-03-26T18:08:23.948Z,61.43
2023-03-26T18:11:20.136Z,61.76
2023-03-26T18:14:10.185Z,62.02
2023-03-26T18:16:41.696Z,62.23
2023-03-26T18:19:13.368Z,62.31
2023-03-26T18:21:40.283Z,62.55
2023-03-26T18:24:13.399Z,62.30
2023-03-26T18:26:42.373Z,62.57
2023-03-26T18:29:17.220Z,62.07
2023-03-26T18:31:48.139Z,62.22
2023-03-26T18:34:16.549Z,62.11
2023-03-26T18:36:43.128Z,62.29
2023-03-26T18:39:12.466Z,62.62
2023-03-26T18:41:41.153Z,62.81
2023-03-26T18:44:14.144Z,62.95
2023-03-26T18:46:41.833Z,62.84
2023-03-26T18:49:13.419Z,63.44
2023-03-26T18:51:54.142Z,63.58
2023-03-26T18:54:24.783Z,63.68
2023-03-26T18:56:51.772Z,64.03
2023-03-26T18:59:25.664Z,64.09
2023-03-26T19:01:52.497Z,64.38
2023-03-26T19:04:21.421Z,64.30
2023-03-26T19:06:48.391Z,64.13
2023-03-26T19:09:30.447Z,64.15
2023-03-26T19:12:04.636Z,64.32
2023-03-26T19:14:31.351Z,64.04
2023-03-26T19:17:00.341Z,63.83
2023-03-26T19:19:32.536Z,64.05
2023-03-26T19:21:59.848Z,64.11
2023-03-26T19:24:27.014Z,63.94
2023-03-26T19:26:53.896Z,63.88
2023-03-26T19:29:25.549Z,63.99
2023-03-26T19:31:52.589Z,64.21
2023-03-26T19:34:26.338Z,63.82
2023-03-26T19:36:56.749Z,63.60
2023-03-26T19:39:36.589Z,63.88
2023-03-26T19:42:05.433Z,63.31
2023-03-26T19:44:32.313Z,63.66
2023-03-26T19:47:02.202Z,63.32
2023-03-26T19:49:30.373Z,63.45
2023-03-26T19:52:11.089Z,63.50
2023-03-26T19:55:00.190Z,63.26
2023-03-26T19:57:32.246Z,63.58
2023-03-26T19:59:59.399Z,63.18
2023-03-26T20:02:26.726Z,62.79
2023-03-26T20:04:53.397Z,62.80
2023-03-26T20:07:22.442Z,63.03
2023-03-26T20:10:03.062Z,62.82
2023-03-26T20:12:29.750Z,63.36
2023-03-26T20:14:56.726Z,63.21
2023-03-26T20:17:23.320Z,63.28
2023-03-26T20:19:49.985Z,63.53
2023-03-26T20:22:18.470Z,63.37
2023-03-26T20:24:46.785Z,63.51
2023-03-26T20:27:14.236Z,63.59
2023-03-26T20:29:41.156Z,63.71
2023-03-26T20:32:17.916Z,63.80
2023-03-26T20:34:44.471Z,63.88
2023-03-26T20:37:11.083Z,64.07
2023-03-26T20:39:37.630Z,63.92
2023-03-26T20:42:05.688Z,63.97
2023-03-26T20:44:32.287Z,64.11
2023-03-26T20:46:58.907Z,64.11
2023-03-26T20:49:25.659Z,64.33
2023-03-26T20:51:52.366Z,64.75
2023-03-26T20:54:20.763Z,64.54
2023-03-26T20:56:47.434Z,64.49
2023-03-26T20:59:18.549Z,64.69
2023-03-26T21:01:45.597Z,64.74
2023-03-26T21:04:12.136Z,64.61
2023-03-26T21:06:38.761Z,64.71
2023-03-26T21:09:06.204Z,64.61
2023-03-26T21:11:45.101Z,64.52
2023-03-26T21:14:19.440Z,64.83
2023-03-26T21:16:46.971Z,64.87
2023-03-26T21:19:14.229Z,64.87
2023-03-26T21:22:06.306Z,64.97
2023-03-26T21:24:45.941Z,64.69
2023-03-26T21:27:20.563Z,65.02
2023-03-26T21:29:49.092Z,64.74
2023-03-26T21:32:16.176Z,64.69
2023-03-26T21:34:55.702Z,64.92
2023-03-26T21:37:25.116Z,64.55
2023-03-26T21:39:52.209Z,64.60
2023-03-26T21:42:19.397Z,65.07
2023-03-26T21:44:48.085Z,64.78
2023-03-26T21:47:15.260Z,65.00
2023-03-26T21:49:42.299Z,65.03
2023-03-26T21:52:12.484Z,64.87
2023-03-26T21:54:41.267Z,64.83
2023-03-26T21:57:23.108Z,65.03
2023-03-26T22:00:02.959Z,64.95
2023-03-26T22:02:40.034Z,64.87
2023-03-26T22:05:13.390Z,65.10
2023-03-26T22:07:44.802Z,64.92
2023-03-26T22:10:11.389Z,65.28
2023-03-26T22:12:37.966Z,65.13
2023-03-26T22:15:07.166Z,65.50
2023-03-26T22:17:33.776Z,65.36
2023-03-26T22:20:00.385Z,65.49
2023-03-26T22:22:27.007Z,65.67
2023-03-26T22:24:53.632Z,65.56
2023-03-26T22:27:20.299Z,66.12
2023-03-26T22:29:46.964Z,65.95
2023-03-26T22:32:15.107Z,66.08
2023-03-26T22:34:41.816Z,65.79
2023-03-26T22:37:08.437Z,66.19
2023-03-26T22:39:35.020Z,66.40
2023-03-26T22:42:02.765Z,66.41
2023-03-26T22:44:29.477Z,66.59
2023-03-26T22:46:56.064Z,66.66
2023-03-26T22:49:24.114Z,66.73
2023-03-26T22:51:50.698Z,66.89
2023-03-26T22:54:17.317Z,67.06
2023-03-26T22:56:44.024Z,67.17
2023-03-26T22:59:10.609Z,67.27
2023-03-26T23:01:37.707Z,67.34
2023-03-26T23:04:04.495Z,67.52
2023-03-26T23:06:32.449Z,67.63
2023-03-26T23:08:59.030Z,67.85
2023-03-26T23:11:25.664Z,67.75
2023-03-26T23:13:52.588Z,68.00
2023-03-26T23:16:19.351Z,68.16
2023-03-26T23:18:46.008Z,67.98
2023-03-26T23:21:14.842Z,68.09
2023-03-26T23:30:32.308Z,68.38
2023-03-26T23:36:27.219Z,68.67
2023-03-26T23:38:53.870Z,68.68
2023-03-26T23:41:22.903Z,68.58
2023-03-26T23:43:53.329Z,69.00
2023-03-26T23:46:25.410Z,68.85
2023-03-26T23:48:52.862Z,68.94
2023-03-26T23:51:20.568Z,69.07
2023-03-26T23:53:48.127Z,69.03
2023-03-26T23:56:14.758Z,68.99
2023-03-26T23:58:41.530Z,68.92
